sensor_id;sensor_type;location;lat;lon;timestamp;P1;durP1;ratioP1;P2;durP2;ratioP2
52468;SDS011;38381;53.688;10.776;2022-11-20T00:01:38;5.80;;;5.10;;
52468;SDS011;38381;53.688;10.776;2022-11-20T00:06:38;5.18;;;4.30;;
52468;SDS011;38381;53.688;10.776;2022-11-20T00:11:39;8.07;;;6.78;;
52468;SDS011;38381;53.688;10.776;2022-11-20T00:16:39;7.60;;;5.18;;
52468;SDS011;38381;53.688;10.776;2022-11-20T00:21:39;5.80;;;5.20;;
52468;SDS011;38381;53.688;10.776;2022-11-20T00:26:40;8.07;;;5.88;;
52468;SDS011;38381;53.688;10.776;2022-11-20T00:31:40;7.05;;;6.05;;
52468;SDS011;38381;53.688;10.776;2022-11-20T00:36:41;8.93;;;6.68;;
52468;SDS011;38381;53.688;10.776;2022-11-20T00:41:41;7.03;;;6.22;;
52468;SDS011;38381;53.688;10.776;2022-11-20T00:46:41;6.88;;;6.28;;
52468;SDS011;38381;53.688;10.776;2022-11-20T00:51:42;9.90;;;6.63;;
52468;SDS011;38381;53.688;10.776;2022-11-20T00:56:42;7.15;;;6.35;;
52468;SDS011;38381;53.688;10.776;2022-11-20T01:01:43;8.43;;;7.38;;
52468;SDS011;38381;53.688;10.776;2022-11-20T01:06:43;6.90;;;6.20;;
52468;SDS011;38381;53.688;10.776;2022-11-20T01:11:44;7.93;;;6.13;;
52468;SDS011;38381;53.688;10.776;2022-11-20T01:16:49;7.43;;;6.63;;
52468;SDS011;38381;53.688;10.776;2022-11-20T01:21:52;7.57;;;6.88;;
52468;SDS011;38381;53.688;10.776;2022-11-20T01:26:54;8.18;;;6.85;;
52468;SDS011;38381;53.688;10.776;2022-11-20T01:31:54;6.03;;;5.45;;
52468;SDS011;38381;53.688;10.776;2022-11-20T01:36:54;8.98;;;6.53;;
52468;SDS011;38381;53.688;10.776;2022-11-20T01:41:55;7.80;;;5.68;;
52468;SDS011;38381;53.688;10.776;2022-11-20T01:47:24;6.00;;;5.40;;
52468;SDS011;38381;53.688;10.776;2022-11-20T01:52:36;8.40;;;6.85;;
52468;SDS011;38381;53.688;10.776;2022-11-20T01:57:40;7.25;;;6.55;;
52468;SDS011;38381;53.688;10.776;2022-11-20T02:02:43;6.28;;;5.68;;
52468;SDS011;38381;53.688;10.776;2022-11-20T02:07:48;6.95;;;6.00;;
52468;SDS011;38381;53.688;10.776;2022-11-20T02:12:49;6.20;;;5.60;;
52468;SDS011;38381;53.688;10.776;2022-11-20T02:18:09;5.35;;;4.85;;
52468;SDS011;38381;53.688;10.776;2022-11-20T02:23:12;6.85;;;6.22;;
52468;SDS011;38381;53.688;10.776;2022-11-20T02:28:33;5.82;;;5.13;;
52468;SDS011;38381;53.688;10.776;2022-11-20T02:33:34;5.80;;;5.13;;
52468;SDS011;38381;53.688;10.776;2022-11-20T02:38:34;8.02;;;5.50;;
52468;SDS011;38381;53.688;10.776;2022-11-20T02:43:34;7.68;;;5.82;;
52468;SDS011;38381;53.688;10.776;2022-11-20T02:48:35;5.88;;;5.15;;
52468;SDS011;38381;53.688;10.776;2022-11-20T02:53:35;6.60;;;5.80;;
52468;SDS011;38381;53.688;10.776;2022-11-20T02:58:36;8.05;;;6.53;;
52468;SDS011;38381;53.688;10.776;2022-11-20T03:03:36;6.75;;;6.07;;
52468;SDS011;38381;53.688;10.776;2022-11-20T03:08:36;7.20;;;6.13;;
52468;SDS011;38381;53.688;10.776;2022-11-20T03:13:37;9.07;;;6.70;;
52468;SDS011;38381;53.688;10.776;2022-11-20T03:18:38;6.88;;;6.18;;
52468;SDS011;38381;53.688;10.776;2022-11-20T03:23:39;6.38;;;5.88;;
52468;SDS011;38381;53.688;10.776;2022-11-20T03:28:41;9.52;;;6.45;;
52468;SDS011;38381;53.688;10.776;2022-11-20T03:33:45;6.45;;;5.85;;
52468;SDS011;38381;53.688;10.776;2022-11-20T03:38:46;8.40;;;6.05;;
52468;SDS011;38381;53.688;10.776;2022-11-20T03:43:51;6.30;;;5.70;;
52468;SDS011;38381;53.688;10.776;2022-11-20T03:48:53;7.35;;;6.13;;
52468;SDS011;38381;53.688;10.776;2022-11-20T03:53:55;6.70;;;6.05;;
52468;SDS011;38381;53.688;10.776;2022-11-20T03:58:58;6.85;;;5.93;;
52468;SDS011;38381;53.688;10.776;2022-11-20T04:03:59;7.82;;;6.95;;
52468;SDS011;38381;53.688;10.776;2022-11-20T04:08:59;10.27;;;6.53;;
52468;SDS011;38381;53.688;10.776;2022-11-20T04:14:01;9.98;;;7.75;;
52468;SDS011;38381;53.688;10.776;2022-11-20T04:19:04;6.75;;;6.05;;
52468;SDS011;38381;53.688;10.776;2022-11-20T04:24:06;7.80;;;6.22;;
52468;SDS011;38381;53.688;10.776;2022-11-20T04:29:09;11.13;;;6.97;;
52468;SDS011;38381;53.688;10.776;2022-11-20T04:34:11;7.93;;;7.10;;
52468;SDS011;38381;53.688;10.776;2022-11-20T04:39:12;7.80;;;6.97;;
52468;SDS011;38381;53.688;10.776;2022-11-20T04:49:14;7.80;;;7.03;;
52468;SDS011;38381;53.688;10.776;2022-11-20T04:54:15;9.57;;;6.80;;
52468;SDS011;38381;53.688;10.776;2022-11-20T04:59:16;10.02;;;7.10;;
52468;SDS011;38381;53.688;10.776;2022-11-20T05:04:16;7.97;;;6.70;;
52468;SDS011;38381;53.688;10.776;2022-11-20T05:09:17;7.93;;;6.22;;
52468;SDS011;38381;53.688;10.776;2022-11-20T05:14:17;7.15;;;6.45;;
52468;SDS011;38381;53.688;10.776;2022-11-20T05:19:18;9.32;;;7.53;;
52468;SDS011;38381;53.688;10.776;2022-11-20T05:24:18;9.65;;;7.10;;
52468;SDS011;38381;53.688;10.776;2022-11-20T05:29:19;6.88;;;6.15;;
52468;SDS011;38381;53.688;10.776;2022-11-20T05:34:19;9.10;;;6.75;;
52468;SDS011;38381;53.688;10.776;2022-11-20T05:39:19;7.75;;;6.03;;
52468;SDS011;38381;53.688;10.776;2022-11-20T05:44:20;7.22;;;5.65;;
52468;SDS011;38381;53.688;10.776;2022-11-20T05:49:20;7.70;;;6.60;;
52468;SDS011;38381;53.688;10.776;2022-11-20T05:54:21;8.73;;;6.22;;
52468;SDS011;38381;53.688;10.776;2022-11-20T05:59:21;7.03;;;6.22;;
52468;SDS011;38381;53.688;10.776;2022-11-20T06:04:22;5.85;;;5.25;;
52468;SDS011;38381;53.688;10.776;2022-11-20T06:09:22;5.85;;;5.28;;
52468;SDS011;38381;53.688;10.776;2022-11-20T06:14:23;9.00;;;5.75;;
52468;SDS011;38381;53.688;10.776;2022-11-20T06:19:23;6.40;;;5.70;;
52468;SDS011;38381;53.688;10.776;2022-11-20T06:24:24;5.28;;;4.78;;
52468;SDS011;38381;53.688;10.776;2022-11-20T06:29:25;6.40;;;5.75;;
52468;SDS011;38381;53.688;10.776;2022-11-20T06:34:25;6.13;;;5.53;;
52468;SDS011;38381;53.688;10.776;2022-11-20T06:39:26;6.97;;;6.25;;
52468;SDS011;38381;53.688;10.776;2022-11-20T06:44:26;7.38;;;6.03;;
52468;SDS011;38381;53.688;10.776;2022-11-20T06:49:27;7.43;;;5.53;;
52468;SDS011;38381;53.688;10.776;2022-11-20T06:54:27;6.55;;;5.85;;
52468;SDS011;38381;53.688;10.776;2022-11-20T06:59:28;5.43;;;4.93;;
52468;SDS011;38381;53.688;10.776;2022-11-20T07:04:28;7.50;;;6.60;;
52468;SDS011;38381;53.688;10.776;2022-11-20T07:09:29;5.97;;;5.35;;
52468;SDS011;38381;53.688;10.776;2022-11-20T07:14:29;6.38;;;5.80;;
52468;SDS011;38381;53.688;10.776;2022-11-20T07:19:30;7.25;;;6.07;;
52468;SDS011;38381;53.688;10.776;2022-11-20T07:24:30;6.95;;;6.20;;
52468;SDS011;38381;53.688;10.776;2022-11-20T07:29:30;6.78;;;5.45;;
52468;SDS011;38381;53.688;10.776;2022-11-20T07:34:31;7.75;;;5.97;;
52468;SDS011;38381;53.688;10.776;2022-11-20T07:39:31;6.57;;;5.63;;
52468;SDS011;38381;53.688;10.776;2022-11-20T07:44:32;7.43;;;6.43;;
52468;SDS011;38381;53.688;10.776;2022-11-20T07:49:32;7.07;;;6.38;;
52468;SDS011;38381;53.688;10.776;2022-11-20T07:54:33;6.38;;;5.28;;
52468;SDS011;38381;53.688;10.776;2022-11-20T07:59:33;8.13;;;5.75;;
52468;SDS011;38381;53.688;10.776;2022-11-20T08:04:34;8.30;;;6.05;;
52468;SDS011;38381;53.688;10.776;2022-11-20T08:09:34;5.80;;;5.25;;
52468;SDS011;38381;53.688;10.776;2022-11-20T08:14:34;6.35;;;5.75;;
52468;SDS011;38381;53.688;10.776;2022-11-20T08:19:35;6.25;;;5.18;;
52468;SDS011;38381;53.688;10.776;2022-11-20T08:24:35;6.53;;;5.90;;
52468;SDS011;38381;53.688;10.776;2022-11-20T08:29:36;7.78;;;6.45;;
52468;SDS011;38381;53.688;10.776;2022-11-20T08:34:36;7.30;;;6.15;;
52468;SDS011;38381;53.688;10.776;2022-11-20T08:39:37;7.10;;;5.38;;
52468;SDS011;38381;53.688;10.776;2022-11-20T08:44:37;7.53;;;6.03;;
52468;SDS011;38381;53.688;10.776;2022-11-20T08:49:38;7.35;;;6.53;;
52468;SDS011;38381;53.688;10.776;2022-11-20T08:54:38;6.47;;;5.82;;
52468;SDS011;38381;53.688;10.776;2022-11-20T08:59:38;7.05;;;6.35;;
52468;SDS011;38381;53.688;10.776;2022-11-20T09:04:39;7.53;;;6.57;;
52468;SDS011;38381;53.688;10.776;2022-11-20T09:09:39;6.78;;;5.78;;
52468;SDS011;38381;53.688;10.776;2022-11-20T09:14:40;9.27;;;6.78;;
52468;SDS011;38381;53.688;10.776;2022-11-20T09:19:40;6.95;;;6.28;;
52468;SDS011;38381;53.688;10.776;2022-11-20T09:24:41;6.53;;;5.88;;
52468;SDS011;38381;53.688;10.776;2022-11-20T09:29:42;7.45;;;6.65;;
52468;SDS011;38381;53.688;10.776;2022-11-20T09:34:43;7.63;;;6.35;;
52468;SDS011;38381;53.688;10.776;2022-11-20T09:39:43;8.30;;;6.35;;
52468;SDS011;38381;53.688;10.776;2022-11-20T09:55:51;6.18;;;5.53;;
52468;SDS011;38381;53.688;10.776;2022-11-20T10:00:52;6.57;;;5.88;;
52468;SDS011;38381;53.688;10.776;2022-11-20T10:05:56;7.38;;;5.95;;
52468;SDS011;38381;53.688;10.776;2022-11-20T10:11:03;6.10;;;5.50;;
52468;SDS011;38381;53.688;10.776;2022-11-20T10:32:03;7.15;;;6.18;;
52468;SDS011;38381;53.688;10.776;2022-11-20T10:37:17;5.47;;;4.97;;
52468;SDS011;38381;53.688;10.776;2022-11-20T10:47:36;5.55;;;5.00;;
52468;SDS011;38381;53.688;10.776;2022-11-20T10:57:57;6.20;;;5.60;;
52468;SDS011;38381;53.688;10.776;2022-11-20T11:08:23;5.28;;;4.78;;
52468;SDS011;38381;53.688;10.776;2022-11-20T11:13:32;7.03;;;4.72;;
52468;SDS011;38381;53.688;10.776;2022-11-20T11:18:33;6.70;;;5.90;;
52468;SDS011;38381;53.688;10.776;2022-11-20T11:23:41;5.47;;;4.95;;
52468;SDS011;38381;53.688;10.776;2022-11-20T11:28:42;5.45;;;4.80;;
52468;SDS011;38381;53.688;10.776;2022-11-20T11:34:04;6.88;;;5.78;;
52468;SDS011;38381;53.688;10.776;2022-11-20T11:39:05;5.53;;;5.03;;
52468;SDS011;38381;53.688;10.776;2022-11-20T11:49:45;4.68;;;4.28;;
52468;SDS011;38381;53.688;10.776;2022-11-20T11:54:48;4.68;;;4.28;;
52468;SDS011;38381;53.688;10.776;2022-11-20T12:05:23;5.03;;;4.30;;
52468;SDS011;38381;53.688;10.776;2022-11-20T12:15:55;5.03;;;4.57;;
52468;SDS011;38381;53.688;10.776;2022-11-20T12:58:45;3.33;;;2.80;;
52468;SDS011;38381;53.688;10.776;2022-11-20T13:03:59;3.42;;;3.13;;
52468;SDS011;38381;53.688;10.776;2022-11-20T13:09:14;3.40;;;2.95;;
52468;SDS011;38381;53.688;10.776;2022-11-20T13:19:38;4.20;;;3.80;;
52468;SDS011;38381;53.688;10.776;2022-11-20T13:24:39;3.58;;;3.28;;
52468;SDS011;38381;53.688;10.776;2022-11-20T13:35:33;3.78;;;3.47;;
52468;SDS011;38381;53.688;10.776;2022-11-20T13:40:37;4.55;;;3.67;;
52468;SDS011;38381;53.688;10.776;2022-11-20T13:45:39;3.67;;;3.38;;
52468;SDS011;38381;53.688;10.776;2022-11-20T13:50:43;4.63;;;4.32;;
52468;SDS011;38381;53.688;10.776;2022-11-20T14:01:07;4.47;;;3.90;;
52468;SDS011;38381;53.688;10.776;2022-11-20T14:06:15;4.88;;;4.47;;
52468;SDS011;38381;53.688;10.776;2022-11-20T14:11:28;4.53;;;3.92;;
52468;SDS011;38381;53.688;10.776;2022-11-20T14:16:31;4.18;;;3.78;;
52468;SDS011;38381;53.688;10.776;2022-11-20T14:21:34;4.13;;;3.70;;
52468;SDS011;38381;53.688;10.776;2022-11-20T14:26:41;4.28;;;3.88;;
52468;SDS011;38381;53.688;10.776;2022-11-20T14:31:44;4.60;;;4.20;;
52468;SDS011;38381;53.688;10.776;2022-11-20T14:36:45;5.95;;;3.78;;
52468;SDS011;38381;53.688;10.776;2022-11-20T14:41:52;5.07;;;4.57;;
52468;SDS011;38381;53.688;10.776;2022-11-20T14:46:54;5.00;;;4.03;;
52468;SDS011;38381;53.688;10.776;2022-11-20T14:52:03;6.38;;;4.47;;
52468;SDS011;38381;53.688;10.776;2022-11-20T14:57:53;4.38;;;3.97;;
52468;SDS011;38381;53.688;10.776;2022-11-20T15:02:43;4.97;;;4.30;;
52468;SDS011;38381;53.688;10.776;2022-11-20T15:07:47;5.35;;;4.85;;
52468;SDS011;38381;53.688;10.776;2022-11-20T15:12:51;5.15;;;4.65;;
52468;SDS011;38381;53.688;10.776;2022-11-20T15:18:16;5.22;;;4.28;;
52468;SDS011;38381;53.688;10.776;2022-11-20T15:23:18;5.88;;;5.13;;
52468;SDS011;38381;53.688;10.776;2022-11-20T15:28:21;6.72;;;6.13;;
52468;SDS011;38381;53.688;10.776;2022-11-20T15:33:27;7.55;;;6.75;;
52468;SDS011;38381;53.688;10.776;2022-11-20T15:38:28;7.55;;;6.18;;
52468;SDS011;38381;53.688;10.776;2022-11-20T15:43:28;6.78;;;6.18;;
52468;SDS011;38381;53.688;10.776;2022-11-20T15:48:29;7.43;;;5.03;;
52468;SDS011;38381;53.688;10.776;2022-11-20T15:53:35;6.05;;;5.38;;
52468;SDS011;38381;53.688;10.776;2022-11-20T15:58:35;7.15;;;6.45;;
52468;SDS011;38381;53.688;10.776;2022-11-20T16:03:36;5.70;;;5.20;;
52468;SDS011;38381;53.688;10.776;2022-11-20T16:08:36;7.72;;;5.43;;
52468;SDS011;38381;53.688;10.776;2022-11-20T16:13:37;4.80;;;4.30;;
52468;SDS011;38381;53.688;10.776;2022-11-20T16:18:56;5.20;;;4.10;;
52468;SDS011;38381;53.688;10.776;2022-11-20T16:24:01;5.13;;;4.50;;
52468;SDS011;38381;53.688;10.776;2022-11-20T16:29:03;4.55;;;4.05;;
52468;SDS011;38381;53.688;10.776;2022-11-20T16:34:06;6.20;;;4.70;;
52468;SDS011;38381;53.688;10.776;2022-11-20T16:39:07;5.47;;;4.80;;
52468;SDS011;38381;53.688;10.776;2022-11-20T16:44:08;5.57;;;5.07;;
52468;SDS011;38381;53.688;10.776;2022-11-20T16:54:12;5.07;;;4.55;;
52468;SDS011;38381;53.688;10.776;2022-11-20T16:59:14;5.80;;;5.20;;
52468;SDS011;38381;53.688;10.776;2022-11-20T17:04:14;5.20;;;4.70;;
52468;SDS011;38381;53.688;10.776;2022-11-20T17:09:15;8.20;;;5.55;;
52468;SDS011;38381;53.688;10.776;2022-11-20T17:14:16;6.10;;;5.30;;
52468;SDS011;38381;53.688;10.776;2022-11-20T17:19:16;5.70;;;5.18;;
52468;SDS011;38381;53.688;10.776;2022-11-20T17:24:17;5.90;;;5.30;;
52468;SDS011;38381;53.688;10.776;2022-11-20T17:29:18;7.20;;;5.93;;
52468;SDS011;38381;53.688;10.776;2022-11-20T17:34:23;7.93;;;7.13;;
52468;SDS011;38381;53.688;10.776;2022-11-20T17:39:23;7.47;;;6.63;;
52468;SDS011;38381;53.688;10.776;2022-11-20T17:44:24;6.93;;;6.28;;
52468;SDS011;38381;53.688;10.776;2022-11-20T17:49:24;5.90;;;5.20;;
52468;SDS011;38381;53.688;10.776;2022-11-20T17:54:24;5.75;;;5.18;;
52468;SDS011;38381;53.688;10.776;2022-11-20T17:59:25;7.55;;;6.63;;
52468;SDS011;38381;53.688;10.776;2022-11-20T18:04:25;6.68;;;6.07;;
52468;SDS011;38381;53.688;10.776;2022-11-20T18:09:26;7.07;;;6.38;;
52468;SDS011;38381;53.688;10.776;2022-11-20T18:14:26;7.45;;;6.72;;
52468;SDS011;38381;53.688;10.776;2022-11-20T18:19:36;7.00;;;6.32;;
52468;SDS011;38381;53.688;10.776;2022-11-20T18:24:38;6.35;;;5.75;;
52468;SDS011;38381;53.688;10.776;2022-11-20T18:29:39;6.10;;;5.50;;
52468;SDS011;38381;53.688;10.776;2022-11-20T18:34:39;8.10;;;6.68;;
52468;SDS011;38381;53.688;10.776;2022-11-20T18:39:40;9.38;;;6.82;;
52468;SDS011;38381;53.688;10.776;2022-11-20T18:44:41;8.13;;;7.32;;
52468;SDS011;38381;53.688;10.776;2022-11-20T18:49:51;8.65;;;6.63;;
52468;SDS011;38381;53.688;10.776;2022-11-20T18:54:53;7.25;;;6.55;;
52468;SDS011;38381;53.688;10.776;2022-11-20T18:59:54;10.63;;;9.73;;
52468;SDS011;38381;53.688;10.776;2022-11-20T19:04:55;7.50;;;6.78;;
52468;SDS011;38381;53.688;10.776;2022-11-20T19:09:56;7.43;;;6.57;;
52468;SDS011;38381;53.688;10.776;2022-11-20T19:14:56;7.38;;;6.75;;
52468;SDS011;38381;53.688;10.776;2022-11-20T19:19:57;6.85;;;6.20;;
52468;SDS011;38381;53.688;10.776;2022-11-20T19:24:57;9.20;;;8.25;;
52468;SDS011;38381;53.688;10.776;2022-11-20T19:29:58;12.20;;;10.55;;
52468;SDS011;38381;53.688;10.776;2022-11-20T19:35:02;9.02;;;8.13;;
52468;SDS011;38381;53.688;10.776;2022-11-20T19:40:03;8.65;;;7.85;;
52468;SDS011;38381;53.688;10.776;2022-11-20T19:45:04;11.30;;;10.23;;
52468;SDS011;38381;53.688;10.776;2022-11-20T19:50:05;10.90;;;8.25;;
52468;SDS011;38381;53.688;10.776;2022-11-20T19:55:06;8.55;;;7.72;;
52468;SDS011;38381;53.688;10.776;2022-11-20T20:00:09;8.77;;;7.88;;
52468;SDS011;38381;53.688;10.776;2022-11-20T20:05:11;15.90;;;10.52;;
52468;SDS011;38381;53.688;10.776;2022-11-20T20:10:11;8.43;;;6.13;;
52468;SDS011;38381;53.688;10.776;2022-11-20T20:15:12;7.28;;;6.68;;
52468;SDS011;38381;53.688;10.776;2022-11-20T20:20:12;7.22;;;6.57;;
52468;SDS011;38381;53.688;10.776;2022-11-20T20:25:13;8.05;;;7.25;;
52468;SDS011;38381;53.688;10.776;2022-11-20T20:30:13;7.85;;;7.07;;
52468;SDS011;38381;53.688;10.776;2022-11-20T20:35:14;19.40;;;17.33;;
52468;SDS011;38381;53.688;10.776;2022-11-20T20:40:14;16.00;;;13.32;;
52468;SDS011;38381;53.688;10.776;2022-11-20T20:45:15;9.80;;;8.90;;
52468;SDS011;38381;53.688;10.776;2022-11-20T20:50:15;7.90;;;7.18;;
52468;SDS011;38381;53.688;10.776;2022-11-20T20:55:16;8.07;;;6.95;;
52468;SDS011;38381;53.688;10.776;2022-11-20T21:00:16;7.28;;;6.32;;
52468;SDS011;38381;53.688;10.776;2022-11-20T21:05:17;6.43;;;5.82;;
52468;SDS011;38381;53.688;10.776;2022-11-20T21:10:17;7.90;;;7.13;;
52468;SDS011;38381;53.688;10.776;2022-11-20T21:15:17;6.55;;;5.95;;
52468;SDS011;38381;53.688;10.776;2022-11-20T21:20:18;8.52;;;5.72;;
52468;SDS011;38381;53.688;10.776;2022-11-20T21:25:37;7.88;;;6.72;;
52468;SDS011;38381;53.688;10.776;2022-11-20T21:30:38;7.65;;;6.88;;
52468;SDS011;38381;53.688;10.776;2022-11-20T21:35:39;11.70;;;10.50;;
52468;SDS011;38381;53.688;10.776;2022-11-20T21:40:40;8.05;;;7.25;;
52468;SDS011;38381;53.688;10.776;2022-11-20T21:45:40;7.43;;;6.63;;
52468;SDS011;38381;53.688;10.776;2022-11-20T21:50:41;8.13;;;5.65;;
52468;SDS011;38381;53.688;10.776;2022-11-20T21:55:41;8.35;;;6.75;;
52468;SDS011;38381;53.688;10.776;2022-11-20T22:00:42;10.27;;;8.52;;
52468;SDS011;38381;53.688;10.776;2022-11-20T22:05:42;11.40;;;7.63;;
52468;SDS011;38381;53.688;10.776;2022-11-20T22:10:43;8.40;;;7.47;;
52468;SDS011;38381;53.688;10.776;2022-11-20T22:15:44;21.33;;;13.00;;
52468;SDS011;38381;53.688;10.776;2022-11-20T22:20:44;19.58;;;13.63;;
52468;SDS011;38381;53.688;10.776;2022-11-20T22:25:45;15.35;;;10.18;;
52468;SDS011;38381;53.688;10.776;2022-11-20T22:30:45;11.02;;;8.70;;
52468;SDS011;38381;53.688;10.776;2022-11-20T22:35:47;8.50;;;7.67;;
52468;SDS011;38381;53.688;10.776;2022-11-20T22:40:47;9.90;;;6.80;;
52468;SDS011;38381;53.688;10.776;2022-11-20T22:45:48;7.82;;;7.07;;
52468;SDS011;38381;53.688;10.776;2022-11-20T22:50:48;8.02;;;6.80;;
52468;SDS011;38381;53.688;10.776;2022-11-20T22:55:49;7.05;;;6.35;;
52468;SDS011;38381;53.688;10.776;2022-11-20T23:00:49;7.75;;;6.97;;
52468;SDS011;38381;53.688;10.776;2022-11-20T23:05:50;7.25;;;6.57;;
52468;SDS011;38381;53.688;10.776;2022-11-20T23:10:50;9.48;;;7.38;;
52468;SDS011;38381;53.688;10.776;2022-11-20T23:15:50;7.93;;;6.55;;
52468;SDS011;38381;53.688;10.776;2022-11-20T23:20:51;7.68;;;6.97;;
52468;SDS011;38381;53.688;10.776;2022-11-20T23:25:51;8.48;;;7.57;;
52468;SDS011;38381;53.688;10.776;2022-11-20T23:30:52;9.57;;;7.95;;
52468;SDS011;38381;53.688;10.776;2022-11-20T23:35:52;9.00;;;7.47;;
52468;SDS011;38381;53.688;10.776;2022-11-20T23:40:53;8.02;;;7.32;;
52468;SDS011;38381;53.688;10.776;2022-11-20T23:45:58;8.13;;;7.32;;
52468;SDS011;38381;53.688;10.776;2022-11-20T23:51:00;7.57;;;6.78;;
52468;SDS011;38381;53.688;10.776;2022-11-20T23:56:02;7.32;;;6.65;;
